sensor_id;sensor_type;location;lat;lon;timestamp;P1;durP1;ratioP1;P2;durP2;ratioP2
10063;SDS011;5071;52.360;13.134;2022-12-08T00:03:17;5.27;;;1.87;;
10063;SDS011;5071;52.360;13.134;2022-12-08T00:08:19;3.20;;;2.17;;
10063;SDS011;5071;52.360;13.134;2022-12-08T00:13:23;3.40;;;1.90;;
10063;SDS011;5071;52.360;13.134;2022-12-08T00:18:25;2.97;;;1.87;;
10063;SDS011;5071;52.360;13.134;2022-12-08T00:23:27;2.63;;;1.93;;
10063;SDS011;5071;52.360;13.134;2022-12-08T00:28:31;7.00;;;2.03;;
10063;SDS011;5071;52.360;13.134;2022-12-08T00:33:33;5.00;;;2.50;;
10063;SDS011;5071;52.360;13.134;2022-12-08T00:38:36;3.43;;;2.30;;
10063;SDS011;5071;52.360;13.134;2022-12-08T00:43:41;4.37;;;2.47;;
10063;SDS011;5071;52.360;13.134;2022-12-08T00:48:43;7.37;;;2.70;;
10063;SDS011;5071;52.360;13.134;2022-12-08T00:53:46;4.63;;;2.23;;
10063;SDS011;5071;52.360;13.134;2022-12-08T00:58:49;4.40;;;2.57;;
10063;SDS011;5071;52.360;13.134;2022-12-08T01:03:52;3.97;;;2.40;;
10063;SDS011;5071;52.360;13.134;2022-12-08T01:08:54;5.03;;;2.70;;
10063;SDS011;5071;52.360;13.134;2022-12-08T01:13:58;5.13;;;3.37;;
10063;SDS011;5071;52.360;13.134;2022-12-08T01:19:00;4.67;;;2.90;;
10063;SDS011;5071;52.360;13.134;2022-12-08T01:24:03;5.47;;;2.97;;
10063;SDS011;5071;52.360;13.134;2022-12-08T01:29:07;6.90;;;3.10;;
10063;SDS011;5071;52.360;13.134;2022-12-08T01:34:09;7.63;;;3.57;;
10063;SDS011;5071;52.360;13.134;2022-12-08T01:39:13;7.33;;;3.67;;
10063;SDS011;5071;52.360;13.134;2022-12-08T01:49:54;6.87;;;3.77;;
10063;SDS011;5071;52.360;13.134;2022-12-08T01:54:57;7.20;;;3.50;;
10063;SDS011;5071;52.360;13.134;2022-12-08T02:00:06;5.53;;;3.33;;
10063;SDS011;5071;52.360;13.134;2022-12-08T02:05:10;7.53;;;3.60;;
10063;SDS011;5071;52.360;13.134;2022-12-08T02:10:15;5.30;;;3.57;;
10063;SDS011;5071;52.360;13.134;2022-12-08T02:15:20;6.53;;;3.37;;
10063;SDS011;5071;52.360;13.134;2022-12-08T02:20:32;5.63;;;3.40;;
10063;SDS011;5071;52.360;13.134;2022-12-08T02:25:45;7.67;;;3.50;;
10063;SDS011;5071;52.360;13.134;2022-12-08T02:31:07;5.93;;;3.17;;
10063;SDS011;5071;52.360;13.134;2022-12-08T02:36:20;5.37;;;3.23;;
10063;SDS011;5071;52.360;13.134;2022-12-08T02:41:28;6.80;;;3.10;;
10063;SDS011;5071;52.360;13.134;2022-12-08T02:46:38;6.67;;;2.93;;
10063;SDS011;5071;52.360;13.134;2022-12-08T02:51:49;3.63;;;2.57;;
10063;SDS011;5071;52.360;13.134;2022-12-08T02:56:59;7.80;;;3.03;;
10063;SDS011;5071;52.360;13.134;2022-12-08T03:02:23;5.67;;;2.73;;
10063;SDS011;5071;52.360;13.134;2022-12-08T03:07:39;5.63;;;3.00;;
10063;SDS011;5071;52.360;13.134;2022-12-08T03:12:47;5.37;;;2.97;;
10063;SDS011;5071;52.360;13.134;2022-12-08T03:17:51;7.93;;;4.10;;
10063;SDS011;5071;52.360;13.134;2022-12-08T03:22:59;5.73;;;3.83;;
10063;SDS011;5071;52.360;13.134;2022-12-08T03:28:03;6.97;;;3.57;;
10063;SDS011;5071;52.360;13.134;2022-12-08T03:33:06;7.57;;;4.10;;
10063;SDS011;5071;52.360;13.134;2022-12-08T03:38:14;7.57;;;4.50;;
10063;SDS011;5071;52.360;13.134;2022-12-08T03:43:17;7.83;;;4.27;;
10063;SDS011;5071;52.360;13.134;2022-12-08T03:48:20;12.43;;;6.17;;
10063;SDS011;5071;52.360;13.134;2022-12-08T03:53:23;11.73;;;6.10;;
10063;SDS011;5071;52.360;13.134;2022-12-08T03:58:26;15.37;;;6.63;;
10063;SDS011;5071;52.360;13.134;2022-12-08T04:03:33;13.13;;;7.73;;
10063;SDS011;5071;52.360;13.134;2022-12-08T04:08:36;13.83;;;6.80;;
10063;SDS011;5071;52.360;13.134;2022-12-08T04:13:39;15.97;;;7.40;;
10063;SDS011;5071;52.360;13.134;2022-12-08T04:18:42;17.03;;;7.93;;
10063;SDS011;5071;52.360;13.134;2022-12-08T04:23:46;13.33;;;7.10;;
10063;SDS011;5071;52.360;13.134;2022-12-08T04:28:48;16.90;;;9.47;;
10063;SDS011;5071;52.360;13.134;2022-12-08T04:33:50;15.73;;;8.43;;
10063;SDS011;5071;52.360;13.134;2022-12-08T04:38:53;12.37;;;7.43;;
10063;SDS011;5071;52.360;13.134;2022-12-08T04:43:56;15.50;;;8.03;;
10063;SDS011;5071;52.360;13.134;2022-12-08T04:48:58;17.17;;;8.83;;
10063;SDS011;5071;52.360;13.134;2022-12-08T04:54:01;15.50;;;8.03;;
10063;SDS011;5071;52.360;13.134;2022-12-08T04:59:04;16.83;;;8.83;;
10063;SDS011;5071;52.360;13.134;2022-12-08T05:04:06;22.70;;;9.43;;
10063;SDS011;5071;52.360;13.134;2022-12-08T05:09:10;16.20;;;8.73;;
10063;SDS011;5071;52.360;13.134;2022-12-08T05:14:13;15.00;;;7.67;;
10063;SDS011;5071;52.360;13.134;2022-12-08T05:19:17;18.87;;;8.47;;
10063;SDS011;5071;52.360;13.134;2022-12-08T05:24:20;20.33;;;9.13;;
10063;SDS011;5071;52.360;13.134;2022-12-08T05:29:22;17.83;;;8.90;;
10063;SDS011;5071;52.360;13.134;2022-12-08T05:34:25;13.00;;;7.20;;
10063;SDS011;5071;52.360;13.134;2022-12-08T05:39:28;14.30;;;7.37;;
10063;SDS011;5071;52.360;13.134;2022-12-08T05:44:30;21.17;;;9.07;;
10063;SDS011;5071;52.360;13.134;2022-12-08T05:49:33;14.87;;;8.30;;
10063;SDS011;5071;52.360;13.134;2022-12-08T05:54:36;12.83;;;7.23;;
10063;SDS011;5071;52.360;13.134;2022-12-08T05:59:38;20.33;;;9.17;;
10063;SDS011;5071;52.360;13.134;2022-12-08T06:04:41;14.83;;;7.77;;
10063;SDS011;5071;52.360;13.134;2022-12-08T06:09:45;21.83;;;10.80;;
10063;SDS011;5071;52.360;13.134;2022-12-08T06:14:47;20.60;;;7.77;;
10063;SDS011;5071;52.360;13.134;2022-12-08T06:19:49;16.40;;;8.23;;
10063;SDS011;5071;52.360;13.134;2022-12-08T06:24:52;18.57;;;7.87;;
10063;SDS011;5071;52.360;13.134;2022-12-08T06:29:54;19.73;;;8.67;;
10063;SDS011;5071;52.360;13.134;2022-12-08T06:34:59;15.43;;;7.57;;
10063;SDS011;5071;52.360;13.134;2022-12-08T06:40:02;12.77;;;7.17;;
10063;SDS011;5071;52.360;13.134;2022-12-08T06:45:05;18.57;;;8.37;;
10063;SDS011;5071;52.360;13.134;2022-12-08T06:50:08;14.77;;;8.20;;
10063;SDS011;5071;52.360;13.134;2022-12-08T06:55:12;17.67;;;9.13;;
10063;SDS011;5071;52.360;13.134;2022-12-08T07:00:35;14.30;;;8.73;;
10063;SDS011;5071;52.360;13.134;2022-12-08T07:05:37;21.30;;;8.70;;
10063;SDS011;5071;52.360;13.134;2022-12-08T07:10:41;18.50;;;8.10;;
10063;SDS011;5071;52.360;13.134;2022-12-08T07:15:43;20.33;;;8.30;;
10063;SDS011;5071;52.360;13.134;2022-12-08T07:20:45;23.10;;;8.33;;
10063;SDS011;5071;52.360;13.134;2022-12-08T07:25:49;20.90;;;8.97;;
10063;SDS011;5071;52.360;13.134;2022-12-08T07:30:51;15.37;;;8.17;;
10063;SDS011;5071;52.360;13.134;2022-12-08T07:35:53;16.80;;;9.10;;
10063;SDS011;5071;52.360;13.134;2022-12-08T07:40:57;21.50;;;8.10;;
10063;SDS011;5071;52.360;13.134;2022-12-08T07:45:59;16.77;;;8.40;;
10063;SDS011;5071;52.360;13.134;2022-12-08T07:51:01;15.57;;;7.80;;
10063;SDS011;5071;52.360;13.134;2022-12-08T07:56:06;14.40;;;7.70;;
10063;SDS011;5071;52.360;13.134;2022-12-08T08:01:17;16.57;;;8.40;;
10063;SDS011;5071;52.360;13.134;2022-12-08T08:06:21;18.63;;;7.83;;
10063;SDS011;5071;52.360;13.134;2022-12-08T08:11:25;18.27;;;9.03;;
10063;SDS011;5071;52.360;13.134;2022-12-08T08:16:27;16.07;;;8.00;;
10063;SDS011;5071;52.360;13.134;2022-12-08T08:21:38;16.70;;;8.27;;
10063;SDS011;5071;52.360;13.134;2022-12-08T08:26:49;14.27;;;8.07;;
10063;SDS011;5071;52.360;13.134;2022-12-08T08:31:51;15.80;;;8.67;;
10063;SDS011;5071;52.360;13.134;2022-12-08T08:36:53;13.90;;;7.40;;
10063;SDS011;5071;52.360;13.134;2022-12-08T08:41:56;14.97;;;7.90;;
10063;SDS011;5071;52.360;13.134;2022-12-08T08:46:58;16.20;;;8.20;;
10063;SDS011;5071;52.360;13.134;2022-12-08T08:52:00;17.27;;;8.60;;
10063;SDS011;5071;52.360;13.134;2022-12-08T08:57:03;18.13;;;7.77;;
10063;SDS011;5071;52.360;13.134;2022-12-08T09:02:05;16.47;;;8.10;;
10063;SDS011;5071;52.360;13.134;2022-12-08T09:07:07;19.23;;;8.67;;
10063;SDS011;5071;52.360;13.134;2022-12-08T09:12:11;18.43;;;8.67;;
10063;SDS011;5071;52.360;13.134;2022-12-08T09:17:18;23.30;;;8.73;;
10063;SDS011;5071;52.360;13.134;2022-12-08T09:22:20;18.73;;;8.20;;
10063;SDS011;5071;52.360;13.134;2022-12-08T09:27:23;16.33;;;8.00;;
10063;SDS011;5071;52.360;13.134;2022-12-08T09:32:25;18.67;;;8.83;;
10063;SDS011;5071;52.360;13.134;2022-12-08T09:37:28;17.90;;;9.00;;
10063;SDS011;5071;52.360;13.134;2022-12-08T09:42:32;17.97;;;8.60;;
10063;SDS011;5071;52.360;13.134;2022-12-08T09:47:39;14.73;;;8.33;;
10063;SDS011;5071;52.360;13.134;2022-12-08T09:52:46;21.00;;;8.17;;
10063;SDS011;5071;52.360;13.134;2022-12-08T09:57:59;11.50;;;6.97;;
10063;SDS011;5071;52.360;13.134;2022-12-08T10:03:05;10.67;;;6.33;;
10063;SDS011;5071;52.360;13.134;2022-12-08T10:08:18;16.57;;;6.70;;
10063;SDS011;5071;52.360;13.134;2022-12-08T10:13:31;11.90;;;6.57;;
10063;SDS011;5071;52.360;13.134;2022-12-08T10:18:39;11.30;;;6.10;;
10063;SDS011;5071;52.360;13.134;2022-12-08T10:23:43;11.67;;;6.50;;
10063;SDS011;5071;52.360;13.134;2022-12-08T10:28:49;13.33;;;6.80;;
10063;SDS011;5071;52.360;13.134;2022-12-08T10:33:53;12.13;;;6.27;;
10063;SDS011;5071;52.360;13.134;2022-12-08T10:38:57;10.97;;;5.87;;
10063;SDS011;5071;52.360;13.134;2022-12-08T10:44:01;9.13;;;5.43;;
10063;SDS011;5071;52.360;13.134;2022-12-08T10:49:09;9.83;;;5.80;;
10063;SDS011;5071;52.360;13.134;2022-12-08T10:54:23;10.60;;;5.93;;
10063;SDS011;5071;52.360;13.134;2022-12-08T10:59:31;13.77;;;6.57;;
10063;SDS011;5071;52.360;13.134;2022-12-08T11:04:34;8.80;;;5.47;;
10063;SDS011;5071;52.360;13.134;2022-12-08T11:09:39;14.37;;;6.33;;
10063;SDS011;5071;52.360;13.134;2022-12-08T11:14:49;13.27;;;6.73;;
10063;SDS011;5071;52.360;13.134;2022-12-08T11:19:56;11.43;;;6.40;;
10063;SDS011;5071;52.360;13.134;2022-12-08T11:25:00;11.33;;;5.93;;
10063;SDS011;5071;52.360;13.134;2022-12-08T11:30:11;12.60;;;6.00;;
10063;SDS011;5071;52.360;13.134;2022-12-08T11:35:18;11.73;;;5.50;;
10063;SDS011;5071;52.360;13.134;2022-12-08T11:40:27;10.60;;;6.10;;
10063;SDS011;5071;52.360;13.134;2022-12-08T11:45:35;11.87;;;6.13;;
10063;SDS011;5071;52.360;13.134;2022-12-08T11:50:39;10.93;;;6.50;;
10063;SDS011;5071;52.360;13.134;2022-12-08T11:55:44;11.50;;;5.13;;
10063;SDS011;5071;52.360;13.134;2022-12-08T12:00:52;11.90;;;6.43;;
10063;SDS011;5071;52.360;13.134;2022-12-08T12:05:57;10.93;;;6.53;;
10063;SDS011;5071;52.360;13.134;2022-12-08T12:11:38;13.10;;;6.63;;
10063;SDS011;5071;52.360;13.134;2022-12-08T12:16:54;16.77;;;6.07;;
10063;SDS011;5071;52.360;13.134;2022-12-08T12:22:07;12.07;;;7.00;;
10063;SDS011;5071;52.360;13.134;2022-12-08T12:27:21;14.50;;;7.67;;
10063;SDS011;5071;52.360;13.134;2022-12-08T12:32:40;14.37;;;7.53;;
10063;SDS011;5071;52.360;13.134;2022-12-08T12:37:46;13.13;;;7.50;;
10063;SDS011;5071;52.360;13.134;2022-12-08T12:48:24;14.47;;;7.63;;
10063;SDS011;5071;52.360;13.134;2022-12-08T12:53:46;15.83;;;8.10;;
10063;SDS011;5071;52.360;13.134;2022-12-08T12:58:49;12.10;;;6.60;;
10063;SDS011;5071;52.360;13.134;2022-12-08T13:04:02;14.50;;;7.87;;
10063;SDS011;5071;52.360;13.134;2022-12-08T13:09:17;14.77;;;6.97;;
10063;SDS011;5071;52.360;13.134;2022-12-08T13:14:31;11.73;;;6.80;;
10063;SDS011;5071;52.360;13.134;2022-12-08T13:19:37;19.50;;;8.20;;
10063;SDS011;5071;52.360;13.134;2022-12-08T13:24:40;14.30;;;8.13;;
10063;SDS011;5071;52.360;13.134;2022-12-08T13:29:42;12.27;;;6.50;;
10063;SDS011;5071;52.360;13.134;2022-12-08T13:34:48;16.80;;;8.57;;
10063;SDS011;5071;52.360;13.134;2022-12-08T13:39:54;15.80;;;8.17;;
10063;SDS011;5071;52.360;13.134;2022-12-08T13:45:00;14.93;;;8.87;;
10063;SDS011;5071;52.360;13.134;2022-12-08T13:50:28;16.53;;;8.40;;
10063;SDS011;5071;52.360;13.134;2022-12-08T13:55:55;15.00;;;8.53;;
10063;SDS011;5071;52.360;13.134;2022-12-08T14:01:19;15.03;;;7.70;;
10063;SDS011;5071;52.360;13.134;2022-12-08T14:06:27;19.90;;;8.77;;
10063;SDS011;5071;52.360;13.134;2022-12-08T14:11:35;19.73;;;9.07;;
10063;SDS011;5071;52.360;13.134;2022-12-08T14:16:41;16.43;;;8.37;;
10063;SDS011;5071;52.360;13.134;2022-12-08T14:21:46;9.47;;;5.03;;
10063;SDS011;5071;52.360;13.134;2022-12-08T14:26:52;5.40;;;3.33;;
10063;SDS011;5071;52.360;13.134;2022-12-08T14:31:56;6.57;;;3.70;;
10063;SDS011;5071;52.360;13.134;2022-12-08T14:37:00;5.70;;;3.83;;
10063;SDS011;5071;52.360;13.134;2022-12-08T14:42:03;5.67;;;3.60;;
10063;SDS011;5071;52.360;13.134;2022-12-08T14:47:07;8.00;;;4.47;;
10063;SDS011;5071;52.360;13.134;2022-12-08T14:52:13;6.50;;;3.37;;
10063;SDS011;5071;52.360;13.134;2022-12-08T14:57:16;5.90;;;3.97;;
10063;SDS011;5071;52.360;13.134;2022-12-08T15:02:23;5.47;;;3.87;;
10063;SDS011;5071;52.360;13.134;2022-12-08T15:07:31;4.73;;;3.27;;
10063;SDS011;5071;52.360;13.134;2022-12-08T15:12:55;6.20;;;3.83;;
10063;SDS011;5071;52.360;13.134;2022-12-08T15:18:01;6.70;;;4.33;;
10063;SDS011;5071;52.360;13.134;2022-12-08T15:28:35;10.07;;;3.87;;
10063;SDS011;5071;52.360;13.134;2022-12-08T15:33:37;6.07;;;3.90;;
10063;SDS011;5071;52.360;13.134;2022-12-08T15:38:41;3.50;;;2.73;;
10063;SDS011;5071;52.360;13.134;2022-12-08T15:43:44;5.90;;;3.57;;
10063;SDS011;5071;52.360;13.134;2022-12-08T15:48:46;6.40;;;3.70;;
10063;SDS011;5071;52.360;13.134;2022-12-08T15:53:53;12.27;;;4.47;;
10063;SDS011;5071;52.360;13.134;2022-12-08T15:58:55;7.67;;;4.40;;
10063;SDS011;5071;52.360;13.134;2022-12-08T16:03:58;5.67;;;4.47;;
10063;SDS011;5071;52.360;13.134;2022-12-08T16:09:25;5.70;;;4.17;;
10063;SDS011;5071;52.360;13.134;2022-12-08T16:14:32;9.43;;;4.30;;
10063;SDS011;5071;52.360;13.134;2022-12-08T16:19:55;8.13;;;5.53;;
10063;SDS011;5071;52.360;13.134;2022-12-08T16:24:58;8.63;;;4.50;;
10063;SDS011;5071;52.360;13.134;2022-12-08T16:30:18;5.30;;;3.80;;
10063;SDS011;5071;52.360;13.134;2022-12-08T16:35:20;7.30;;;4.43;;
10063;SDS011;5071;52.360;13.134;2022-12-08T16:40:24;7.23;;;4.90;;
10063;SDS011;5071;52.360;13.134;2022-12-08T16:45:27;7.33;;;4.70;;
10063;SDS011;5071;52.360;13.134;2022-12-08T16:50:31;8.23;;;5.50;;
10063;SDS011;5071;52.360;13.134;2022-12-08T16:55:37;10.07;;;5.50;;
10063;SDS011;5071;52.360;13.134;2022-12-08T17:00:39;10.77;;;5.10;;
10063;SDS011;5071;52.360;13.134;2022-12-08T17:05:42;8.00;;;5.27;;
10063;SDS011;5071;52.360;13.134;2022-12-08T17:10:46;9.50;;;5.90;;
10063;SDS011;5071;52.360;13.134;2022-12-08T17:15:48;10.87;;;5.33;;
10063;SDS011;5071;52.360;13.134;2022-12-08T17:20:50;11.60;;;5.67;;
10063;SDS011;5071;52.360;13.134;2022-12-08T17:26:02;8.47;;;4.27;;
10063;SDS011;5071;52.360;13.134;2022-12-08T17:31:08;9.50;;;5.63;;
10063;SDS011;5071;52.360;13.134;2022-12-08T17:36:12;7.27;;;4.90;;
10063;SDS011;5071;52.360;13.134;2022-12-08T17:41:17;9.27;;;5.17;;
10063;SDS011;5071;52.360;13.134;2022-12-08T17:46:19;11.77;;;6.67;;
10063;SDS011;5071;52.360;13.134;2022-12-08T17:51:23;11.07;;;7.70;;
10063;SDS011;5071;52.360;13.134;2022-12-08T17:56:27;10.57;;;6.60;;
10063;SDS011;5071;52.360;13.134;2022-12-08T18:01:28;10.50;;;6.40;;
10063;SDS011;5071;52.360;13.134;2022-12-08T18:06:30;9.80;;;6.80;;
10063;SDS011;5071;52.360;13.134;2022-12-08T18:11:34;11.73;;;7.90;;
10063;SDS011;5071;52.360;13.134;2022-12-08T18:16:38;11.43;;;6.70;;
10063;SDS011;5071;52.360;13.134;2022-12-08T18:21:43;11.17;;;6.87;;
10063;SDS011;5071;52.360;13.134;2022-12-08T18:26:47;10.80;;;6.80;;
10063;SDS011;5071;52.360;13.134;2022-12-08T18:31:50;14.17;;;7.37;;
10063;SDS011;5071;52.360;13.134;2022-12-08T18:36:52;11.57;;;6.90;;
10063;SDS011;5071;52.360;13.134;2022-12-08T18:41:57;10.07;;;6.60;;
10063;SDS011;5071;52.360;13.134;2022-12-08T18:47:03;9.83;;;6.37;;
10063;SDS011;5071;52.360;13.134;2022-12-08T18:52:07;10.40;;;6.53;;
10063;SDS011;5071;52.360;13.134;2022-12-08T18:57:12;13.50;;;8.20;;
10063;SDS011;5071;52.360;13.134;2022-12-08T19:02:15;14.70;;;8.53;;
10063;SDS011;5071;52.360;13.134;2022-12-08T19:07:19;12.53;;;8.23;;
10063;SDS011;5071;52.360;13.134;2022-12-08T19:12:26;17.07;;;9.33;;
10063;SDS011;5071;52.360;13.134;2022-12-08T19:17:34;18.13;;;9.50;;
10063;SDS011;5071;52.360;13.134;2022-12-08T19:22:43;14.93;;;9.70;;
10063;SDS011;5071;52.360;13.134;2022-12-08T19:27:50;14.80;;;9.33;;
10063;SDS011;5071;52.360;13.134;2022-12-08T19:32:57;13.97;;;8.30;;
10063;SDS011;5071;52.360;13.134;2022-12-08T19:37:59;17.07;;;9.70;;
10063;SDS011;5071;52.360;13.134;2022-12-08T19:43:04;12.97;;;9.10;;
10063;SDS011;5071;52.360;13.134;2022-12-08T19:48:07;12.50;;;7.97;;
10063;SDS011;5071;52.360;13.134;2022-12-08T19:53:11;14.43;;;9.03;;
10063;SDS011;5071;52.360;13.134;2022-12-08T19:58:15;14.07;;;7.93;;
10063;SDS011;5071;52.360;13.134;2022-12-08T20:03:19;11.00;;;6.87;;
10063;SDS011;5071;52.360;13.134;2022-12-08T20:08:23;12.77;;;7.10;;
10063;SDS011;5071;52.360;13.134;2022-12-08T20:13:26;15.03;;;9.10;;
10063;SDS011;5071;52.360;13.134;2022-12-08T20:18:29;13.90;;;7.93;;
10063;SDS011;5071;52.360;13.134;2022-12-08T20:23:31;11.73;;;6.60;;
10063;SDS011;5071;52.360;13.134;2022-12-08T20:28:35;14.03;;;7.77;;
10063;SDS011;5071;52.360;13.134;2022-12-08T20:33:37;13.07;;;6.93;;
10063;SDS011;5071;52.360;13.134;2022-12-08T20:38:39;13.67;;;8.33;;
10063;SDS011;5071;52.360;13.134;2022-12-08T20:43:44;11.90;;;6.47;;
10063;SDS011;5071;52.360;13.134;2022-12-08T20:48:47;12.77;;;7.50;;
10063;SDS011;5071;52.360;13.134;2022-12-08T20:53:50;11.83;;;7.00;;
10063;SDS011;5071;52.360;13.134;2022-12-08T20:58:54;10.87;;;6.30;;
10063;SDS011;5071;52.360;13.134;2022-12-08T21:03:56;11.03;;;6.70;;
10063;SDS011;5071;52.360;13.134;2022-12-08T21:08:58;11.57;;;7.37;;
10063;SDS011;5071;52.360;13.134;2022-12-08T21:14:03;11.77;;;6.67;;
10063;SDS011;5071;52.360;13.134;2022-12-08T21:19:06;13.27;;;7.43;;
10063;SDS011;5071;52.360;13.134;2022-12-08T21:24:08;10.93;;;6.27;;
10063;SDS011;5071;52.360;13.134;2022-12-08T21:29:11;11.37;;;6.50;;
10063;SDS011;5071;52.360;13.134;2022-12-08T21:34:14;8.97;;;5.50;;
10063;SDS011;5071;52.360;13.134;2022-12-08T21:39:16;11.37;;;6.80;;
10063;SDS011;5071;52.360;13.134;2022-12-08T21:44:19;15.07;;;7.07;;
10063;SDS011;5071;52.360;13.134;2022-12-08T21:49:21;10.37;;;6.00;;
10063;SDS011;5071;52.360;13.134;2022-12-08T21:54:24;10.43;;;5.90;;
10063;SDS011;5071;52.360;13.134;2022-12-08T21:59:27;12.97;;;7.20;;
10063;SDS011;5071;52.360;13.134;2022-12-08T22:04:29;14.07;;;7.10;;
10063;SDS011;5071;52.360;13.134;2022-12-08T22:09:31;9.20;;;6.47;;
10063;SDS011;5071;52.360;13.134;2022-12-08T22:14:35;13.63;;;7.60;;
10063;SDS011;5071;52.360;13.134;2022-12-08T22:19:38;12.13;;;7.47;;
10063;SDS011;5071;52.360;13.134;2022-12-08T22:24:40;13.03;;;8.20;;
10063;SDS011;5071;52.360;13.134;2022-12-08T22:29:44;12.97;;;6.83;;
10063;SDS011;5071;52.360;13.134;2022-12-08T22:34:46;11.30;;;6.30;;
10063;SDS011;5071;52.360;13.134;2022-12-08T22:39:49;13.27;;;6.33;;
10063;SDS011;5071;52.360;13.134;2022-12-08T22:44:52;13.80;;;7.47;;
10063;SDS011;5071;52.360;13.134;2022-12-08T22:49:55;11.97;;;6.37;;
10063;SDS011;5071;52.360;13.134;2022-12-08T22:54:57;12.07;;;7.70;;
10063;SDS011;5071;52.360;13.134;2022-12-08T23:00:01;11.93;;;6.80;;
10063;SDS011;5071;52.360;13.134;2022-12-08T23:05:04;10.33;;;5.57;;
10063;SDS011;5071;52.360;13.134;2022-12-08T23:10:07;15.07;;;6.97;;
10063;SDS011;5071;52.360;13.134;2022-12-08T23:15:12;11.87;;;6.87;;
10063;SDS011;5071;52.360;13.134;2022-12-08T23:20:15;10.50;;;6.87;;
10063;SDS011;5071;52.360;13.134;2022-12-08T23:25:17;10.00;;;6.17;;
10063;SDS011;5071;52.360;13.134;2022-12-08T23:30:21;14.57;;;7.37;;
10063;SDS011;5071;52.360;13.134;2022-12-08T23:35:24;8.47;;;5.10;;
10063;SDS011;5071;52.360;13.134;2022-12-08T23:40:26;9.40;;;5.73;;
10063;SDS011;5071;52.360;13.134;2022-12-08T23:45:30;11.60;;;6.13;;
10063;SDS011;5071;52.360;13.134;2022-12-08T23:50:32;9.37;;;5.90;;
10063;SDS011;5071;52.360;13.134;2022-12-08T23:55:34;11.80;;;6.30;;
